Time;durP1;ratioP1;P1;durP2;ratioP2;P2;SDS_P1;SDS_P2;PMS_P1;PMS_P2;Temp;Humidity;BMP_temperature;BMP_pressure;BME280_temperature;BME280_humidity;BME280_pressure;Samples;Min_cycle;Max_cycle;Signal;HPM_P1;HPM_P2
2023/02/25 00:01:19;;;;;;;0.50;0.30;;;4.70;99.90;;;;;;5075648;28;20454;-78
2023/02/25 00:03:46;;;;;;;0.47;0.40;;;4.70;99.90;;;;;;5075633;28;20471;-78
2023/02/25 00:06:14;;;;;;;0.90;0.40;;;4.70;99.90;;;;;;5075621;28;20476;-78
2023/02/25 00:08:43;;;;;;;4.10;0.60;;;4.70;99.90;;;;;;5075467;28;20556;-78
2023/02/25 00:11:10;;;;;;;0.30;0.30;;;4.70;99.90;;;;;;5075532;28;20450;-78
2023/02/25 00:13:40;;;;;;;1.03;0.30;;;4.60;99.90;;;;;;5075395;28;21118;-78
2023/02/25 00:16:08;;;;;;;0.67;0.33;;;4.60;99.90;;;;;;5075735;28;20804;-78
2023/02/25 00:18:39;;;;;;;2.67;0.70;;;4.60;99.90;;;;;;5075555;28;20476;-78
2023/02/25 00:21:08;;;;;;;1.23;0.57;;;4.60;99.90;;;;;;5075329;28;20932;-78
2023/02/25 00:23:35;;;;;;;0.87;0.87;;;4.60;99.90;;;;;;5075602;28;20888;-78
2023/02/25 00:26:04;;;;;;;0.50;0.50;;;4.60;99.90;;;;;;5075174;28;20457;-78
2023/02/25 00:28:31;;;;;;;0.30;0.30;;;4.60;99.90;;;;;;5075088;28;20469;-78
2023/02/25 00:30:58;;;;;;;0.33;0.30;;;4.50;99.90;;;;;;5075387;28;20559;-78
2023/02/25 00:33:24;;;;;;;0.40;0.30;;;4.50;99.90;;;;;;5075339;28;20489;-78
2023/02/25 00:35:52;;;;;;;0.30;0.30;;;4.60;99.90;;;;;;5075344;28;20453;-78
2023/02/25 00:38:19;;;;;;;2.13;0.60;;;4.60;99.90;;;;;;5074835;28;20493;-78
2023/02/25 00:40:46;;;;;;;0.30;0.30;;;4.60;99.90;;;;;;5075204;28;20449;-79
2023/02/25 00:43:12;;;;;;;0.70;0.60;;;4.60;99.90;;;;;;5074942;28;20808;-78
2023/02/25 00:45:40;;;;;;;0.43;0.43;;;4.60;99.90;;;;;;5075091;28;20445;-78
2023/02/25 00:48:06;;;;;;;0.93;0.43;;;4.60;99.90;;;;;;5074734;28;20977;-78
2023/02/25 00:50:34;;;;;;;0.30;0.30;;;4.60;99.90;;;;;;5075450;28;20441;-79
2023/02/25 00:53:02;;;;;;;0.40;0.40;;;4.60;99.90;;;;;;5075287;28;20500;-79
2023/02/25 00:55:32;;;;;;;0.70;0.70;;;4.60;99.90;;;;;;5074660;28;20445;-78
2023/02/25 00:57:59;;;;;;;0.73;0.73;;;4.60;99.90;;;;;;5074779;28;20509;-78
2023/02/25 01:00:27;;;;;;;0.60;0.57;;;4.60;99.90;;;;;;5074577;28;20454;-78
2023/02/25 01:02:56;;;;;;;1.53;0.67;;;4.60;99.90;;;;;;5074857;28;20433;-78
2023/02/25 01:05:23;;;;;;;2.27;1.60;;;4.60;99.90;;;;;;5074725;28;20450;-78
2023/02/25 01:07:49;;;;;;;1.07;0.47;;;4.60;99.90;;;;;;5074435;28;20989;-79
2023/02/25 01:10:18;;;;;;;0.30;0.30;;;4.60;99.90;;;;;;5074705;28;20458;-78
2023/02/25 01:12:45;;;;;;;0.67;0.67;;;4.60;99.90;;;;;;5074666;28;20496;-79
2023/02/25 01:15:12;;;;;;;0.30;0.30;;;4.60;99.90;;;;;;5074701;28;20450;-78
2023/02/25 01:17:39;;;;;;;0.50;0.50;;;4.60;99.90;;;;;;5074578;28;20468;-78
2023/02/25 01:20:11;;;;;;;0.40;0.40;;;4.60;99.90;;;;;;5074243;28;20779;-78
2023/02/25 01:22:40;;;;;;;0.30;0.30;;;4.60;99.90;;;;;;5074522;28;20437;-78
2023/02/25 01:25:10;;;;;;;0.50;0.50;;;4.60;99.90;;;;;;5075109;28;20462;-78
2023/02/25 01:27:39;;;;;;;0.47;0.27;;;4.60;99.90;;;;;;5074453;28;20477;-79
2023/02/25 01:30:07;;;;;;;0.50;0.50;;;4.60;99.90;;;;;;5074541;28;20460;-78
2023/02/25 01:32:34;;;;;;;0.50;0.50;;;4.60;99.90;;;;;;5075231;28;20481;-78
2023/02/25 01:35:01;;;;;;;0.47;0.40;;;4.60;99.90;;;;;;5074668;28;20457;-78
2023/02/25 01:37:27;;;;;;;0.40;0.40;;;4.60;99.90;;;;;;5074507;28;20500;-79
2023/02/25 01:39:54;;;;;;;0.37;0.30;;;4.60;99.90;;;;;;5075339;28;20438;-78
2023/02/25 01:42:22;;;;;;;0.30;0.30;;;4.60;99.90;;;;;;5074603;28;20459;-78
2023/02/25 01:45:23;;;;;;;0.30;0.30;;;4.60;99.90;;;;;;5074554;28;20449;-78
2023/02/25 01:47:55;;;;;;;1.03;0.60;;;4.60;99.90;;;;;;5074276;28;20500;-78
2023/02/25 01:50:26;;;;;;;0.47;0.47;;;4.60;99.90;;;;;;5074187;28;20816;-78
2023/02/25 01:52:55;;;;;;;1.07;0.57;;;4.60;99.90;;;;;;5073741;28;20465;-78
2023/02/25 01:55:22;;;;;;;1.17;1.17;;;4.60;99.90;;;;;;5073802;28;20457;-78
2023/02/25 01:57:49;;;;;;;1.60;0.50;;;4.60;99.90;;;;;;5073710;28;20469;-79
2023/02/25 02:00:18;;;;;;;0.60;0.60;;;4.50;99.90;;;;;;5073747;28;20541;-79
2023/02/25 02:02:48;;;;;;;0.30;0.30;;;4.50;99.90;;;;;;5073687;28;20449;-78
2023/02/25 02:05:15;;;;;;;0.60;0.60;;;4.50;99.90;;;;;;5073627;28;20449;-78
2023/02/25 02:07:41;;;;;;;1.37;0.60;;;4.40;99.90;;;;;;5073231;28;20846;-78
2023/02/25 02:10:10;;;;;;;0.30;0.20;;;4.40;99.90;;;;;;5073618;28;20446;-78
2023/02/25 02:12:40;;;;;;;2.57;1.00;;;4.40;99.90;;;;;;5073516;28;20929;-78
2023/02/25 02:15:11;;;;;;;2.33;0.70;;;4.40;99.90;;;;;;5073577;28;20438;-78
2023/02/25 02:17:44;;;;;;;0.77;0.77;;;4.40;99.90;;;;;;5073198;28;20484;-78
2023/02/25 02:20:15;;;;;;;0.40;0.40;;;4.40;99.90;;;;;;5073301;28;20918;-79
2023/02/25 02:22:53;;;;;;;3.03;0.67;;;4.30;99.90;;;;;;5073462;28;20441;-79
2023/02/25 02:25:57;;;;;;;0.30;0.30;;;4.30;99.90;;;;;;5073357;28;20758;-78
2023/02/25 02:28:53;;;;;;;1.37;0.40;;;4.30;99.90;;;;;;5073061;28;20462;-78
2023/02/25 02:31:41;;;;;;;0.30;0.30;;;4.30;99.90;;;;;;5073429;28;20446;-78
2023/02/25 02:34:20;;;;;;;2.50;0.53;;;4.30;99.90;;;;;;5072973;28;20976;-78
2023/02/25 02:36:58;;;;;;;0.30;0.30;;;4.30;99.90;;;;;;5073230;28;20481;-78
2023/02/25 02:39:30;;;;;;;1.47;0.50;;;4.30;99.90;;;;;;5073311;28;20474;-78
2023/02/25 02:42:03;;;;;;;0.70;0.70;;;4.30;99.90;;;;;;5073390;28;20438;-78
2023/02/25 02:44:35;;;;;;;1.40;0.40;;;4.20;99.90;;;;;;5073336;28;20434;-78
2023/02/25 02:47:09;;;;;;;0.47;0.47;;;4.30;99.90;;;;;;5073125;28;20488;-78
2023/02/25 02:49:40;;;;;;;0.67;0.57;;;4.20;99.90;;;;;;5073198;28;20422;-78
2023/02/25 02:52:14;;;;;;;0.50;0.40;;;4.20;99.90;;;;;;5073151;28;20434;-78
2023/02/25 02:54:43;;;;;;;0.50;0.40;;;4.20;99.90;;;;;;5073162;28;20875;-78
2023/02/25 02:57:12;;;;;;;0.30;0.30;;;4.20;99.90;;;;;;5073178;28;20466;-78
2023/02/25 02:59:44;;;;;;;0.40;0.40;;;4.10;99.90;;;;;;5073151;28;20445;-78
2023/02/25 03:02:17;;;;;;;0.43;0.43;;;4.00;99.90;;;;;;5072856;28;20441;-78
2023/02/25 03:04:46;;;;;;;0.77;0.50;;;4.00;99.90;;;;;;5076610;28;20521;-77
2023/02/25 03:07:14;;;;;;;0.30;0.30;;;3.90;99.90;;;;;;5077023;28;20473;-77
2023/02/25 03:09:46;;;;;;;0.67;0.33;;;3.90;99.90;;;;;;5077013;28;20476;-77
2023/02/25 03:12:13;;;;;;;0.97;0.53;;;3.90;99.90;;;;;;5076992;28;20439;-76
2023/02/25 03:14:40;;;;;;;0.60;0.60;;;3.80;99.90;;;;;;5076764;28;20488;-76
2023/02/25 03:17:09;;;;;;;3.37;0.67;;;3.80;99.90;;;;;;5076459;28;20998;-76
2023/02/25 03:19:41;;;;;;;2.40;1.00;;;3.80;99.90;;;;;;5076745;28;20456;-76
2023/02/25 03:22:12;;;;;;;0.40;0.30;;;3.80;99.90;;;;;;5076490;28;20915;-77
2023/02/25 03:24:45;;;;;;;0.60;0.40;;;3.80;99.90;;;;;;5076666;28;20429;-76
2023/02/25 03:27:26;;;;;;;0.30;0.30;;;3.80;99.90;;;;;;5076726;28;20496;-76
2023/02/25 03:29:57;;;;;;;0.53;0.43;;;3.80;99.90;;;;;;5076588;28;20430;-76
2023/02/25 03:32:25;;;;;;;2.67;0.40;;;3.80;99.90;;;;;;5076561;28;20436;-77
2023/02/25 03:34:56;;;;;;;3.10;0.97;;;3.70;99.90;;;;;;5076368;28;20508;-77
2023/02/25 03:37:27;;;;;;;0.40;0.30;;;3.70;99.90;;;;;;5076134;28;20538;-77
2023/02/25 03:39:58;;;;;;;0.67;0.30;;;3.70;99.90;;;;;;5076435;28;20426;-78
2023/02/25 03:42:29;;;;;;;0.30;0.23;;;3.70;99.90;;;;;;5076367;28;20441;-78
2023/02/25 03:45:00;;;;;;;0.90;0.90;;;3.70;99.90;;;;;;5076315;28;20433;-78
2023/02/25 03:47:29;;;;;;;0.30;0.30;;;3.70;99.90;;;;;;5075937;28;20898;-78
2023/02/25 03:50:00;;;;;;;0.30;0.30;;;3.70;99.90;;;;;;5076213;28;20453;-78
2023/02/25 03:52:28;;;;;;;0.50;0.40;;;3.80;99.90;;;;;;5075934;28;20434;-78
2023/02/25 03:54:57;;;;;;;0.30;0.30;;;3.80;99.90;;;;;;5076084;28;20570;-78
2023/02/25 03:57:28;;;;;;;0.30;0.27;;;3.80;99.90;;;;;;5076265;28;20470;-78
2023/02/25 03:59:55;;;;;;;0.30;0.30;;;3.80;99.90;;;;;;5076385;28;20441;-78
2023/02/25 04:02:24;;;;;;;0.63;0.30;;;3.90;99.90;;;;;;5076029;28;21071;-79
2023/02/25 04:04:51;;;;;;;0.57;0.57;;;3.80;99.90;;;;;;5076337;28;20468;-79
2023/02/25 04:07:19;;;;;;;0.50;0.50;;;3.80;99.90;;;;;;5076063;28;20547;-79
2023/02/25 04:09:46;;;;;;;0.47;0.30;;;3.90;99.90;;;;;;5076340;28;20449;-78
2023/02/25 04:12:12;;;;;;;0.50;0.40;;;3.80;99.90;;;;;;5075796;28;20453;-78
2023/02/25 04:14:39;;;;;;;0.93;0.90;;;3.80;99.90;;;;;;5075068;28;20493;-78
2023/02/25 04:17:06;;;;;;;0.30;0.30;;;3.70;99.90;;;;;;5075656;28;20474;-78
2023/02/25 04:19:33;;;;;;;0.33;0.30;;;3.70;99.90;;;;;;5075803;28;20445;-78
2023/02/25 04:22:00;;;;;;;1.10;1.10;;;3.80;99.90;;;;;;5075586;28;20460;-78
2023/02/25 04:24:28;;;;;;;3.20;0.60;;;3.80;99.90;;;;;;5075235;28;20968;-78
2023/02/25 04:26:57;;;;;;;0.40;0.30;;;3.80;99.90;;;;;;5075118;28;20967;-78
2023/02/25 04:29:24;;;;;;;0.50;0.30;;;3.80;99.90;;;;;;5075151;28;20449;-78
2023/02/25 04:31:50;;;;;;;0.30;0.30;;;3.80;99.90;;;;;;5075223;28;20441;-78
2023/02/25 04:34:18;;;;;;;0.30;0.30;;;3.80;99.90;;;;;;5075370;28;20485;-78
2023/02/25 04:36:45;;;;;;;0.40;0.40;;;3.70;99.90;;;;;;5075233;28;20529;-77
2023/02/25 04:39:13;;;;;;;0.30;0.30;;;3.70;99.90;;;;;;5075256;28;20449;-78
2023/02/25 04:41:42;;;;;;;0.53;0.40;;;3.70;99.90;;;;;;5075494;28;20793;-78
2023/02/25 04:44:09;;;;;;;0.40;0.40;;;3.60;99.90;;;;;;5075301;28;20450;-78
2023/02/25 04:46:38;;;;;;;0.30;0.30;;;3.50;99.90;;;;;;5074803;28;20449;-78
2023/02/25 04:49:06;;;;;;;0.40;0.33;;;3.50;99.90;;;;;;5075056;28;20454;-78
2023/02/25 04:51:33;;;;;;;0.30;0.30;;;3.40;99.90;;;;;;5074880;28;20809;-78
2023/02/25 04:54:00;;;;;;;0.30;0.30;;;3.30;99.90;;;;;;5074873;28;20485;-78
2023/02/25 04:56:27;;;;;;;0.73;0.73;;;3.30;99.90;;;;;;5074495;28;20941;-78
2023/02/25 04:58:56;;;;;;;0.47;0.37;;;3.30;99.90;;;;;;5074861;28;20502;-78
2023/02/25 05:01:23;;;;;;;0.30;0.30;;;3.30;99.90;;;;;;5074722;28;20464;-78
2023/02/25 05:03:55;;;;;;;0.30;0.30;;;3.30;99.90;;;;;;5074773;28;20449;-78
2023/02/25 05:06:22;;;;;;;0.30;0.30;;;3.30;99.90;;;;;;5074738;28;20430;-78
2023/02/25 05:08:49;;;;;;;0.30;0.30;;;3.30;99.90;;;;;;5074345;28;20454;-78
2023/02/25 05:11:16;;;;;;;0.30;0.20;;;3.40;99.90;;;;;;5074311;28;20438;-78
2023/02/25 05:13:42;;;;;;;0.30;0.30;;;3.40;99.90;;;;;;5074482;28;20616;-78
2023/02/25 05:16:12;;;;;;;2.60;0.97;;;3.40;99.90;;;;;;5074191;28;20452;-78
2023/02/25 05:18:40;;;;;;;1.17;0.60;;;3.40;99.90;;;;;;5074405;28;20474;-78
2023/02/25 05:21:11;;;;;;;0.50;0.50;;;3.30;99.90;;;;;;5074412;28;20453;-78
2023/02/25 05:23:38;;;;;;;0.50;0.30;;;3.20;99.90;;;;;;5075162;28;20529;-78
2023/02/25 05:26:05;;;;;;;0.47;0.33;;;3.20;99.90;;;;;;5073415;28;20433;-78
2023/02/25 05:28:32;;;;;;;0.30;0.30;;;3.20;99.90;;;;;;5074263;28;20469;-78
2023/02/25 05:30:59;;;;;;;0.93;0.67;;;3.20;99.90;;;;;;5073941;28;20935;-78
2023/02/25 05:33:27;;;;;;;0.40;0.30;;;3.30;99.90;;;;;;5074126;28;20461;-78
2023/02/25 05:35:53;;;;;;;0.30;0.30;;;3.30;99.90;;;;;;5074106;28;20878;-78
2023/02/25 05:38:20;;;;;;;0.90;0.67;;;3.30;99.90;;;;;;5073809;28;20493;-78
2023/02/25 05:40:47;;;;;;;0.60;0.40;;;3.30;99.90;;;;;;5073765;28;20445;-78
2023/02/25 05:43:13;;;;;;;0.30;0.30;;;3.30;99.90;;;;;;5073987;28;20456;-78
2023/02/25 05:45:40;;;;;;;0.40;0.40;;;3.30;99.90;;;;;;5073829;28;20445;-79
2023/02/25 05:48:07;;;;;;;0.30;0.20;;;3.40;99.90;;;;;;5073664;28;20969;-79
2023/02/25 05:50:40;;;;;;;0.30;0.30;;;3.40;99.90;;;;;;5073586;28;20448;-76
2023/02/25 05:53:07;;;;;;;0.30;0.23;;;3.40;99.90;;;;;;5073536;28;20925;-76
2023/02/25 05:55:33;;;;;;;0.30;0.30;;;3.40;99.90;;;;;;5074128;28;20840;-76
2023/02/25 05:58:00;;;;;;;0.40;0.40;;;3.40;99.90;;;;;;5073366;28;20462;-76
2023/02/25 06:00:27;;;;;;;0.53;0.33;;;3.40;99.90;;;;;;5073706;28;20808;-76
2023/02/25 06:02:53;;;;;;;0.30;0.20;;;3.40;99.90;;;;;;5074064;28;20446;-77
2023/02/25 06:05:20;;;;;;;0.60;0.40;;;3.40;99.90;;;;;;5073588;28;20446;-78
2023/02/25 06:07:48;;;;;;;0.30;0.20;;;3.40;99.90;;;;;;5073236;28;20469;-77
2023/02/25 06:10:15;;;;;;;0.40;0.40;;;3.40;99.90;;;;;;5073613;28;20457;-77
2023/02/25 06:12:42;;;;;;;0.30;0.30;;;3.30;99.90;;;;;;5073602;28;20450;-77
2023/02/25 06:15:09;;;;;;;0.30;0.30;;;3.40;99.90;;;;;;5073278;28;20473;-77
2023/02/25 06:17:35;;;;;;;0.40;0.30;;;3.40;99.90;;;;;;5073726;28;20470;-77
2023/02/25 06:20:04;;;;;;;0.47;0.30;;;3.40;99.90;;;;;;5073505;28;20457;-78
2023/02/25 06:22:31;;;;;;;0.30;0.30;;;3.40;99.90;;;;;;5073470;28;20491;-77
2023/02/25 06:24:59;;;;;;;0.30;0.20;;;3.40;99.90;;;;;;5073450;28;20450;-77
2023/02/25 06:27:26;;;;;;;0.63;0.47;;;3.50;99.90;;;;;;5073484;28;20465;-77
2023/02/25 06:29:53;;;;;;;0.30;0.30;;;3.40;99.90;;;;;;5073409;28;20842;-77
2023/02/25 06:32:19;;;;;;;1.23;0.40;;;3.50;99.90;;;;;;5073060;28;20456;-77
2023/02/25 06:34:46;;;;;;;0.30;0.30;;;3.50;99.90;;;;;;5073409;28;20485;-77
2023/02/25 06:37:13;;;;;;;0.30;0.30;;;3.50;99.90;;;;;;5072781;28;20492;-77
2023/02/25 06:39:41;;;;;;;0.40;0.40;;;3.50;99.90;;;;;;5073327;28;20445;-77
2023/02/25 06:42:10;;;;;;;0.30;0.30;;;3.50;99.90;;;;;;5073454;28;20457;-78
2023/02/25 06:44:37;;;;;;;0.47;0.47;;;3.50;99.90;;;;;;5073213;28;20460;-77
2023/02/25 06:47:03;;;;;;;0.37;0.33;;;3.50;99.90;;;;;;5073099;28;20473;-78
2023/02/25 06:49:30;;;;;;;1.17;0.60;;;3.60;99.90;;;;;;5072876;28;20829;-78
2023/02/25 06:51:57;;;;;;;1.13;0.40;;;3.60;99.90;;;;;;5072839;28;20503;-77
2023/02/25 06:54:24;;;;;;;0.30;0.30;;;3.60;99.90;;;;;;5073042;28;20485;-77
2023/02/25 06:56:52;;;;;;;0.30;0.30;;;3.70;99.90;;;;;;5073033;28;20491;-77
2023/02/25 06:59:20;;;;;;;0.30;0.30;;;3.70;99.90;;;;;;5073066;28;20515;-78
2023/02/25 07:01:47;;;;;;;0.40;0.40;;;3.70;99.90;;;;;;5072756;28;20847;-78
2023/02/25 07:04:15;;;;;;;0.30;0.30;;;3.80;99.90;;;;;;5072746;28;20453;-77
2023/02/25 07:06:42;;;;;;;0.30;0.30;;;3.90;99.90;;;;;;5072978;28;20453;-78
2023/02/25 07:09:09;;;;;;;0.30;0.30;;;3.90;99.90;;;;;;5073053;28;20449;-78
2023/02/25 07:11:36;;;;;;;0.30;0.30;;;4.00;99.90;;;;;;5072968;28;20446;-78
2023/02/25 07:14:03;;;;;;;0.30;0.30;;;4.10;99.90;;;;;;5072889;28;20477;-77
2023/02/25 07:16:33;;;;;;;0.60;0.40;;;4.10;99.90;;;;;;5072849;28;20461;-77
2023/02/25 07:19:00;;;;;;;0.30;0.30;;;4.20;99.90;;;;;;5073088;28;20456;-78
2023/02/25 07:21:29;;;;;;;0.30;0.30;;;4.20;99.90;;;;;;5073250;28;20494;-78
2023/02/25 07:23:56;;;;;;;0.30;0.30;;;4.20;99.90;;;;;;5072898;28;20491;-78
2023/02/25 07:26:27;;;;;;;0.30;0.30;;;4.30;99.90;;;;;;5073074;28;20434;-78
2023/02/25 07:28:54;;;;;;;0.30;0.30;;;4.30;99.90;;;;;;5072622;28;20441;-78
2023/02/25 07:31:21;;;;;;;0.30;0.30;;;4.50;99.90;;;;;;5072570;28;20863;-78
2023/02/25 07:33:50;;;;;;;0.30;0.30;;;4.60;99.90;;;;;;5072802;28;20480;-77
2023/02/25 07:36:17;;;;;;;0.30;0.20;;;4.60;99.90;;;;;;5072775;28;20492;-77
2023/02/25 07:38:45;;;;;;;0.30;0.30;;;4.70;99.90;;;;;;5072325;28;20486;-78
2023/02/25 07:41:14;;;;;;;0.30;0.30;;;4.80;99.90;;;;;;5072719;28;20528;-78
2023/02/25 07:43:42;;;;;;;0.30;0.30;;;4.70;99.90;;;;;;5072398;28;20826;-78
2023/02/25 07:46:09;;;;;;;0.30;0.30;;;4.60;99.90;;;;;;5072671;28;20446;-77
2023/02/25 07:48:36;;;;;;;0.30;0.30;;;4.50;99.90;;;;;;5072589;28;20476;-78
2023/02/25 07:51:09;;;;;;;0.30;0.30;;;4.30;99.90;;;;;;5075920;28;20450;-77
2023/02/25 07:53:36;;;;;;;0.30;0.30;;;4.20;99.90;;;;;;5076156;28;20927;-77
2023/02/25 07:56:04;;;;;;;0.53;0.40;;;4.10;99.90;;;;;;5076079;28;20488;-77
2023/02/25 07:58:31;;;;;;;0.30;0.30;;;4.00;99.90;;;;;;5076026;28;20510;-77
2023/02/25 08:00:59;;;;;;;0.30;0.30;;;4.00;99.90;;;;;;5075924;28;20484;-77
2023/02/25 08:03:26;;;;;;;0.30;0.23;;;4.00;99.90;;;;;;5076035;28;20492;-77
2023/02/25 08:05:53;;;;;;;0.30;0.30;;;3.90;99.90;;;;;;5075765;28;20441;-77
2023/02/25 08:08:22;;;;;;;0.30;0.30;;;3.90;99.90;;;;;;5075891;28;20476;-77
2023/02/25 08:10:49;;;;;;;0.40;0.30;;;4.00;99.90;;;;;;5075609;28;20438;-77
2023/02/25 08:13:16;;;;;;;0.30;0.30;;;4.20;99.90;;;;;;5075539;28;20453;-77
2023/02/25 08:15:43;;;;;;;0.30;0.30;;;4.40;99.90;;;;;;5075722;28;20488;-78
2023/02/25 08:18:10;;;;;;;0.30;0.30;;;4.70;99.90;;;;;;5075941;28;20466;-77
2023/02/25 08:20:37;;;;;;;0.73;0.40;;;5.00;99.90;;;;;;5075756;28;20430;-78
2023/02/25 08:23:05;;;;;;;0.50;0.30;;;5.10;99.90;;;;;;5075685;28;20460;-78
2023/02/25 08:25:33;;;;;;;0.30;0.30;;;5.20;99.90;;;;;;5075582;28;20489;-78
2023/02/25 08:28:01;;;;;;;0.50;0.33;;;5.40;99.90;;;;;;5075561;28;20473;-77
2023/02/25 08:30:27;;;;;;;0.30;0.30;;;5.60;99.90;;;;;;5075540;28;20457;-77
2023/02/25 08:32:56;;;;;;;0.40;0.37;;;5.70;99.90;;;;;;5075451;28;20454;-78
2023/02/25 08:35:24;;;;;;;0.70;0.30;;;5.80;99.90;;;;;;5075347;28;20496;-78
2023/02/25 08:37:51;;;;;;;0.30;0.30;;;6.00;99.90;;;;;;5075060;28;20489;-78
2023/02/25 08:40:18;;;;;;;0.30;0.30;;;6.10;99.90;;;;;;5075339;28;20449;-78
2023/02/25 08:42:46;;;;;;;0.57;0.57;;;6.00;99.90;;;;;;5075243;28;20461;-78
2023/02/25 08:45:13;;;;;;;0.30;0.30;;;5.80;99.90;;;;;;5075262;28;20450;-77
2023/02/25 08:47:39;;;;;;;0.37;0.30;;;5.70;99.90;;;;;;5075093;28;20466;-78
2023/02/25 08:50:08;;;;;;;0.30;0.23;;;5.60;99.90;;;;;;5075164;28;20472;-77
2023/02/25 08:52:34;;;;;;;0.30;0.30;;;5.50;99.90;;;;;;5075112;28;20831;-78
2023/02/25 08:55:01;;;;;;;0.30;0.30;;;5.40;99.90;;;;;;5074967;28;20481;-78
2023/02/25 08:57:29;;;;;;;0.30;0.30;;;5.40;99.90;;;;;;5074921;28;20844;-77
2023/02/25 08:59:57;;;;;;;0.90;0.30;;;5.40;99.90;;;;;;5074527;28;20953;-78
2023/02/25 09:02:24;;;;;;;0.70;0.37;;;5.50;99.90;;;;;;5074580;28;20943;-78
2023/02/25 09:04:51;;;;;;;1.10;0.40;;;5.60;99.90;;;;;;5074853;28;20925;-78
2023/02/25 09:07:19;;;;;;;0.40;0.30;;;5.70;99.90;;;;;;5074421;28;20999;-78
2023/02/25 09:09:46;;;;;;;0.40;0.40;;;5.90;99.90;;;;;;5075025;28;20790;-79
2023/02/25 09:12:12;;;;;;;0.30;0.30;;;6.10;99.90;;;;;;5074738;28;20445;-78
2023/02/25 09:14:39;;;;;;;0.37;0.33;;;6.40;99.90;;;;;;5074358;28;20450;-78
2023/02/25 09:17:07;;;;;;;0.40;0.40;;;6.70;99.90;;;;;;5074272;28;20453;-78
2023/02/25 09:19:37;;;;;;;0.30;0.30;;;7.00;99.90;;;;;;5074234;28;20450;-78
2023/02/25 09:22:04;;;;;;;0.80;0.40;;;7.30;99.90;;;;;;5074296;28;20465;-78
2023/02/25 09:24:32;;;;;;;0.30;0.30;;;7.70;99.90;;;;;;5074435;28;20461;-78
2023/02/25 09:26:59;;;;;;;0.30;0.30;;;8.20;99.90;;;;;;5074297;28;20477;-78
2023/02/25 09:29:26;;;;;;;0.50;0.30;;;9.40;99.90;;;;;;5074233;28;20461;-78
2023/02/25 09:31:53;;;;;;;0.40;0.30;;;11.20;99.90;;;;;;5074304;28;20449;-78
2023/02/25 09:34:21;;;;;;;0.50;0.30;;;13.10;99.90;;;;;;5074229;28;20445;-78
2023/02/25 09:36:48;;;;;;;0.73;0.73;;;14.80;99.90;;;;;;5073618;28;21031;-78
2023/02/25 09:39:15;;;;;;;9.60;0.47;;;16.00;94.10;;;;;;5074343;28;20466;-79
2023/02/25 09:41:49;;;;;;;0.80;0.40;;;17.00;90.50;;;;;;5074144;28;20457;-79
2023/02/25 09:44:19;;;;;;;0.43;0.43;;;18.00;83.60;;;;;;5074149;28;20425;-79
2023/02/25 09:46:51;;;;;;;1.00;0.40;;;18.80;78.90;;;;;;5073953;28;20477;-80
2023/02/25 09:49:25;;;;;;;0.87;0.43;;;18.10;68.50;;;;;;5074020;28;20438;-79
2023/02/25 09:51:56;;;;;;;0.40;0.27;;;16.50;68.60;;;;;;5073986;28;20491;-79
2023/02/25 09:54:29;;;;;;;0.40;0.30;;;14.80;71.90;;;;;;5073955;28;20505;-80
2023/02/25 09:56:58;;;;;;;0.50;0.40;;;13.40;77.00;;;;;;5073721;28;20528;-80
2023/02/25 09:59:28;;;;;;;0.40;0.40;;;12.30;81.80;;;;;;5073559;28;20944;-80
2023/02/25 10:01:59;;;;;;;0.40;0.30;;;11.50;83.90;;;;;;5073567;28;20946;-80
2023/02/25 10:04:32;;;;;;;0.73;0.40;;;10.80;86.60;;;;;;5073569;28;20461;-80
2023/02/25 10:07:08;;;;;;;0.30;0.30;;;10.40;88.20;;;;;;5073687;28;20465;-80
2023/02/25 10:09:48;;;;;;;0.40;0.30;;;10.50;85.30;;;;;;5073964;28;20442;-80
2023/02/25 10:12:26;;;;;;;0.30;0.20;;;10.40;89.70;;;;;;5073230;28;20525;-80
2023/02/25 10:15:20;;;;;;;0.40;0.30;;;10.50;89.50;;;;;;5073297;28;20434;-80
2023/02/25 10:18:02;;;;;;;0.40;0.30;;;10.80;89.60;;;;;;5073244;28;20980;-80
2023/02/25 10:20:43;;;;;;;0.30;0.20;;;10.90;84.60;;;;;;5073608;28;20795;-80
2023/02/25 10:23:22;;;;;;;0.40;0.40;;;11.00;85.30;;;;;;5073591;28;20436;-80
2023/02/25 10:25:56;;;;;;;0.37;0.30;;;11.10;84.90;;;;;;5073450;28;20890;-80
2023/02/25 10:28:24;;;;;;;0.40;0.30;;;11.00;86.80;;;;;;5073396;28;20468;-80
2023/02/25 10:30:58;;;;;;;0.33;0.23;;;10.80;87.70;;;;;;5073119;28;20452;-80
2023/02/25 10:33:28;;;;;;;0.30;0.23;;;10.60;88.90;;;;;;5073439;28;20421;-80
2023/02/25 10:36:00;;;;;;;0.40;0.30;;;10.30;88.70;;;;;;5073227;28;20934;-80
2023/02/25 10:38:27;;;;;;;0.30;0.30;;;10.00;90.20;;;;;;5072917;28;20481;-80
2023/02/25 10:40:57;;;;;;;0.37;0.30;;;9.90;91.80;;;;;;5073048;28;20963;-80
2023/02/25 10:43:26;;;;;;;0.30;0.30;;;9.70;92.10;;;;;;5073295;28;20445;-80
2023/02/25 10:45:59;;;;;;;0.77;0.30;;;9.50;92.80;;;;;;5072912;28;20449;-80
2023/02/25 10:48:29;;;;;;;0.90;0.50;;;9.40;91.70;;;;;;5073184;28;20469;-80
2023/02/25 10:51:08;;;;;;;1.50;0.40;;;9.40;92.70;;;;;;5073225;28;20445;-80
2023/02/25 10:53:35;;;;;;;0.97;0.43;;;9.40;92.00;;;;;;5073244;28;20449;-80
2023/02/25 10:56:02;;;;;;;0.70;0.50;;;9.50;91.80;;;;;;5073091;28;20481;-80
2023/02/25 10:58:37;;;;;;;0.30;0.30;;;9.60;91.60;;;;;;5073104;28;20483;-79
2023/02/25 11:01:09;;;;;;;0.30;0.30;;;9.60;92.40;;;;;;5073703;28;20483;-80
2023/02/25 11:03:45;;;;;;;0.30;0.30;;;9.70;92.40;;;;;;5072830;28;20936;-79
2023/02/25 11:06:19;;;;;;;1.17;0.50;;;10.10;91.50;;;;;;5073140;28;20437;-79
2023/02/25 11:08:46;;;;;;;0.47;0.40;;;10.70;91.10;;;;;;5072726;28;20837;-80
2023/02/25 11:11:20;;;;;;;0.77;0.40;;;11.70;90.50;;;;;;5072852;28;20469;-80
2023/02/25 11:14:01;;;;;;;0.50;0.40;;;12.70;86.80;;;;;;5073131;28;20442;-80
2023/02/25 11:16:30;;;;;;;2.73;0.97;;;13.10;85.90;;;;;;5072525;28;20988;-80
2023/02/25 11:19:00;;;;;;;1.30;0.50;;;13.10;85.50;;;;;;5072815;28;20437;-80
2023/02/25 11:21:34;;;;;;;0.60;0.30;;;12.70;81.00;;;;;;5073361;28;20449;-80
2023/02/25 11:24:03;;;;;;;0.47;0.47;;;12.00;80.90;;;;;;5073696;28;20445;-80
2023/02/25 11:26:33;;;;;;;0.30;0.30;;;11.30;83.90;;;;;;5076661;28;20445;-77
2023/02/25 11:29:02;;;;;;;1.60;0.47;;;10.80;84.30;;;;;;5076671;28;20449;-77
2023/02/25 11:31:34;;;;;;;0.90;0.43;;;10.20;86.50;;;;;;5076558;28;20455;-78
2023/02/25 11:34:05;;;;;;;0.30;0.30;;;9.90;89.10;;;;;;5076618;28;20434;-79
2023/02/25 11:36:35;;;;;;;0.30;0.20;;;9.70;89.40;;;;;;5076848;28;20515;-79
2023/02/25 11:39:15;;;;;;;0.40;0.27;;;9.50;90.00;;;;;;5076065;28;21036;-79
2023/02/25 11:41:43;;;;;;;0.30;0.20;;;9.50;89.50;;;;;;5076714;28;20475;-79
2023/02/25 11:44:28;;;;;;;0.40;0.30;;;9.30;91.40;;;;;;5076397;28;20499;-78
2023/02/25 11:47:03;;;;;;;0.47;0.47;;;9.00;90.30;;;;;;5076297;28;20480;-78
2023/02/25 11:50:03;;;;;;;0.40;0.30;;;8.90;91.10;;;;;;5076291;28;20433;-79
2023/02/25 11:52:40;;;;;;;0.30;0.30;;;9.00;92.30;;;;;;5076435;28;20433;-78
2023/02/25 11:55:18;;;;;;;0.40;0.40;;;9.10;91.50;;;;;;5076229;28;20425;-78
2023/02/25 11:57:57;;;;;;;0.40;0.30;;;9.30;92.40;;;;;;5076369;28;20457;-79
2023/02/25 12:00:32;;;;;;;0.30;0.20;;;9.40;91.20;;;;;;5076109;28;20491;-78
2023/02/25 12:03:31;;;;;;;0.60;0.40;;;9.40;90.90;;;;;;5075819;28;20465;-78
2023/02/25 12:06:14;;;;;;;0.40;0.30;;;9.30;92.20;;;;;;5055482;28;20990;-79
2023/02/25 12:09:16;;;;;;;0.30;0.30;;;9.30;92.10;;;;;;5075906;28;20462;-78
2023/02/25 12:12:03;;;;;;;0.40;0.30;;;9.20;91.50;;;;;;5075981;28;20421;-78
2023/02/25 12:15:06;;;;;;;0.30;0.20;;;9.30;91.40;;;;;;5075785;28;20436;-79
2023/02/25 12:17:57;;;;;;;0.40;0.33;;;9.40;91.80;;;;;;5075401;28;21064;-78
2023/02/25 12:20:57;;;;;;;0.40;0.30;;;9.40;92.60;;;;;;5075543;28;20808;-79
2023/02/25 12:24:18;;;;;;;0.30;0.27;;;9.30;92.60;;;;;;5075811;28;20433;-78
2023/02/25 12:27:09;;;;;;;0.30;0.30;;;9.10;93.30;;;;;;5014021;28;20987;-79
2023/02/25 12:29:56;;;;;;;0.40;0.40;;;9.00;93.00;;;;;;5071145;28;20956;-78
2023/02/25 12:32:45;;;;;;;0.30;0.27;;;8.90;93.80;;;;;;5042238;28;20959;-78
2023/02/25 12:35:38;;;;;;;0.30;0.30;;;8.80;94.90;;;;;;5074891;28;20931;-79
2023/02/25 12:38:38;;;;;;;0.40;0.40;;;8.70;93.90;;;;;;5075178;28;20539;-79
2023/02/25 12:41:31;;;;;;;0.30;0.30;;;8.40;93.50;;;;;;5050240;28;20796;-79
2023/02/25 12:44:22;;;;;;;0.30;0.30;;;8.40;93.90;;;;;;5077732;28;20465;-77
2023/02/25 12:47:04;;;;;;;1.17;0.30;;;8.40;94.70;;;;;;5077371;28;20457;-78
2023/02/25 12:49:51;;;;;;;0.30;0.30;;;8.40;95.00;;;;;;5076154;28;20429;-78
2023/02/25 12:52:34;;;;;;;0.40;0.30;;;8.50;95.20;;;;;;5081007;28;20426;-77
2023/02/25 12:55:25;;;;;;;0.30;0.30;;;8.50;95.50;;;;;;5076992;28;20422;-78
2023/02/25 12:58:14;;;;;;;0.30;0.30;;;8.50;95.10;;;;;;5075004;28;20492;-79
2023/02/25 13:01:08;;;;;;;0.30;0.30;;;8.40;94.90;;;;;;5075040;28;20434;-79
2023/02/25 13:03:52;;;;;;;0.30;0.30;;;8.10;94.60;;;;;;5075033;28;20434;-79
2023/02/25 13:06:36;;;;;;;0.57;0.30;;;8.00;95.60;;;;;;5074920;28;20456;-79
2023/02/25 13:09:21;;;;;;;0.30;0.30;;;7.80;96.70;;;;;;5074557;28;20913;-79
2023/02/25 13:12:05;;;;;;;0.30;0.27;;;7.60;97.30;;;;;;5074834;28;20438;-79
2023/02/25 13:14:45;;;;;;;0.30;0.30;;;7.60;96.80;;;;;;5074905;28;20430;-79
2023/02/25 13:17:35;;;;;;;0.30;0.30;;;7.40;97.70;;;;;;5074529;28;20927;-79